Nacogdoches, TX (75964)

5:03 PM CDT on September 04, 2015 (GMT -0500)
South Side | | Change Station
CLOSE
Current Station
Personal Weather Station
Location: Nacogdoches, TX
Elevation: 331 ft
Nearby Weather Stations

Elev 331 ft 31.59 °N, 94.66 °W | Updated 9 seconds ago

Mostly Cloudy
Mostly Cloudy
93.4 °F
Feels Like 101 °F
N
6.0
Wind Variable Wind from South
Gusts 7.6 mph

Today
High -- | Low -- °F
--% Chance of Precip.
Yesterday
High -- | Low -- °F
Precip. -- in
6:56 AM 7:38 PM
Waning Gibbous, 55% visible
Pressure 29.92 in
Visibility 10.0 miles
Clouds Scattered Clouds 9000 ft
Heat Index 101 °F
Dew Point 71 °F
Humidity 49%
Rainfall 0.00 in
Snow Depth Not available.
UV 3 out of 12
Pollen 9.00 out of 12
Air Quality Not available.
Flu Activity Not available.
METAR KOCH 042155Z AUTO 19006KT 10SM SCT090 32/21 A2992 RMK AO1
Pressure 29.92 in
Visibility 10.0 miles
Clouds Scattered Clouds 9000 ft
Heat Index 101 °F
Dew Point 71 °F
Humidity 49%
Rainfall 0.00 in
Snow Depth Not available.
UV 3 out of 12
Pollen 9.00 out of 12
Air Quality Not available.
Flu Activity Not available.
METAR KOCH 042155Z AUTO 19006KT 10SM SCT090 32/21 A2992 RMK AO1
Nowcast | as of 4:37 PM CDT on September 4, 2015

Widely scattered showers are occurring in East Texas...central louisana...southwestern Arkansas and southeast Oklahoma... these showers are moving to the NW at 20 mph...some showers can have brief heavy rain and lightning.

×

10-Day Weather Forecast

×

Almanac

Astronomy

Sep. 04, 2015 Rise Set
Actual Time
Civil Twilight
Nautical Twilight
Astronomical Twilight
Moon
Length of Visible Light
Length of Day
Tomorrow will be .
, % of the Moon is Illuminated

Today's Extremes

State Highs State Lows

Community

WunderPhotos

Upload Photos

1,852,305 photos uploaded!

WunderBlogs® & News

Nearby

Air Quality

  Air Quality AQ Index Pollutant
Not available.

Snow Depth

Station Depth Elevation

Earthquake Activity

City Distance Mag. Time & Date
Minimum magnitude displayed is 2.5.

Coastal Water Temperatures

Place Temperature

Stations

Nearby Weather Stations

Station Location Temp. Windchill Dew Point Humidity Wind Precip. Elev Updated Type